Time;durP1;ratioP1;P1;durP2;ratioP2;P2;SDS_P1;SDS_P2;PMS_P1;PMS_P2;Temp;Humidity;BMP_temperature;BMP_pressure;BME280_temperature;BME280_humidity;BME280_pressure;Samples;Min_cycle;Max_cycle;Signal;HPM_P1;HPM_P2
2023/01/23 00:01:25;;;;;;;20.60;12.38;;;;;;;;;;5052030;28;20201;-62
2023/01/23 00:03:53;;;;;;;18.58;12.20;;;;;;;;;;5050280;28;20196;-62
2023/01/23 00:06:22;;;;;;;18.65;13.00;;;;;;;;;;5048143;28;20221;-63
2023/01/23 00:08:50;;;;;;;19.98;13.30;;;;;;;;;;5051697;28;20209;-63
2023/01/23 00:11:19;;;;;;;23.85;14.68;;;;;;;;;;5053406;28;20200;-62
2023/01/23 00:13:47;;;;;;;19.00;12.50;;;;;;;;;;5052262;28;20232;-62
2023/01/23 00:16:16;;;;;;;19.42;13.00;;;;;;;;;;5052872;28;20232;-62
2023/01/23 00:18:46;;;;;;;19.75;12.32;;;;;;;;;;5052039;28;20731;-62
2023/01/23 00:21:16;;;;;;;20.00;13.02;;;;;;;;;;5047112;28;20208;-62
2023/01/23 00:23:45;;;;;;;17.75;12.73;;;;;;;;;;5051994;28;20240;-62
2023/01/23 00:26:15;;;;;;;20.75;13.10;;;;;;;;;;5052538;28;20576;-64
2023/01/23 00:28:45;;;;;;;19.75;13.25;;;;;;;;;;5033981;28;20206;-62
2023/01/23 00:31:15;;;;;;;17.83;11.95;;;;;;;;;;5046894;28;20200;-62
2023/01/23 00:33:44;;;;;;;20.70;12.23;;;;;;;;;;5032374;28;20579;-62
2023/01/23 00:36:14;;;;;;;22.02;13.55;;;;;;;;;;5034883;28;20636;-62
2023/01/23 00:38:42;;;;;;;18.63;11.70;;;;;;;;;;5038694;28;20208;-64
2023/01/23 00:41:11;;;;;;;20.33;13.13;;;;;;;;;;5038869;28;20231;-62
2023/01/23 00:43:39;;;;;;;23.88;13.68;;;;;;;;;;5051722;28;20659;-62
2023/01/23 00:46:08;;;;;;;19.40;13.25;;;;;;;;;;5047322;28;20193;-62
2023/01/23 00:48:36;;;;;;;23.35;13.90;;;;;;;;;;5040501;28;20212;-62
2023/01/23 00:51:04;;;;;;;23.73;14.07;;;;;;;;;;5030878;28;20211;-62
2023/01/23 00:53:33;;;;;;;21.67;14.18;;;;;;;;;;5050678;28;20200;-62
2023/01/23 00:56:01;;;;;;;25.73;14.45;;;;;;;;;;5045618;28;20204;-64
2023/01/23 00:58:29;;;;;;;20.92;13.63;;;;;;;;;;5046052;28;20673;-63
2023/01/23 01:00:57;;;;;;;21.83;14.57;;;;;;;;;;5030263;28;20197;-62
2023/01/23 01:03:25;;;;;;;20.38;12.25;;;;;;;;;;5042467;28;20213;-62
2023/01/23 01:05:53;;;;;;;21.80;13.68;;;;;;;;;;5051322;28;20209;-62
2023/01/23 01:08:22;;;;;;;22.35;13.52;;;;;;;;;;5038854;28;20216;-61
2023/01/23 01:10:51;;;;;;;25.23;15.10;;;;;;;;;;5054713;28;20687;-63
2023/01/23 01:13:20;;;;;;;21.48;13.13;;;;;;;;;;5043903;28;20269;-62
2023/01/23 01:15:49;;;;;;;22.75;13.57;;;;;;;;;;5035770;28;20236;-63
2023/01/23 01:18:18;;;;;;;24.10;15.70;;;;;;;;;;5036292;28;20205;-61
2023/01/23 01:20:46;;;;;;;22.48;14.27;;;;;;;;;;5037671;28;20201;-61
2023/01/23 01:23:14;;;;;;;20.27;12.98;;;;;;;;;;5055964;28;20281;-62
2023/01/23 01:25:42;;;;;;;25.05;15.10;;;;;;;;;;5042033;28;20201;-61
2023/01/23 01:28:12;;;;;;;22.15;14.23;;;;;;;;;;5035684;28;20239;-62
2023/01/23 01:30:40;;;;;;;26.67;16.70;;;;;;;;;;5036051;28;20215;-63
2023/01/23 01:33:09;;;;;;;26.13;15.13;;;;;;;;;;5035366;28;20212;-62
2023/01/23 01:35:40;;;;;;;25.67;16.23;;;;;;;;;;5034500;28;20209;-65
2023/01/23 01:38:08;;;;;;;25.30;14.40;;;;;;;;;;5035500;28;20201;-64
2023/01/23 01:40:37;;;;;;;28.95;15.63;;;;;;;;;;5036971;28;20205;-64
2023/01/23 01:43:06;;;;;;;21.55;13.52;;;;;;;;;;5055036;28;20208;-63
2023/01/23 01:45:54;;;;;;;26.15;14.60;;;;;;;;;;5055086;28;20211;-63
2023/01/23 01:48:25;;;;;;;28.20;15.07;;;;;;;;;;5054219;28;20212;-63
2023/01/23 01:50:53;;;;;;;27.33;15.25;;;;;;;;;;5055135;28;20188;-64
2023/01/23 01:53:21;;;;;;;25.52;14.05;;;;;;;;;;5055012;28;20219;-65
2023/01/23 01:55:50;;;;;;;24.27;13.48;;;;;;;;;;5053617;28;20197;-64
2023/01/23 01:58:19;;;;;;;31.83;16.27;;;;;;;;;;5036993;28;20578;-64
2023/01/23 02:00:47;;;;;;;24.90;13.90;;;;;;;;;;5054934;28;20209;-64
2023/01/23 02:03:15;;;;;;;21.38;14.15;;;;;;;;;;5053713;28;20208;-63
2023/01/23 02:05:46;;;;;;;28.58;15.88;;;;;;;;;;5052939;28;20209;-63
2023/01/23 02:08:17;;;;;;;24.33;14.57;;;;;;;;;;5052666;28;20201;-61
2023/01/23 02:10:47;;;;;;;29.05;14.93;;;;;;;;;;5055342;28;20188;-61
2023/01/23 02:13:20;;;;;;;22.77;12.77;;;;;;;;;;5054903;28;20197;-62
2023/01/23 02:15:48;;;;;;;23.73;14.60;;;;;;;;;;5053320;28;20240;-62
2023/01/23 02:18:16;;;;;;;24.60;14.70;;;;;;;;;;5054330;28;20224;-61
2023/01/23 02:20:46;;;;;;;24.20;14.65;;;;;;;;;;5054188;28;20551;-61
2023/01/23 02:23:17;;;;;;;21.65;13.70;;;;;;;;;;5051757;28;20244;-60
2023/01/23 02:25:55;;;;;;;23.33;14.10;;;;;;;;;;5034096;28;20562;-61
2023/01/23 02:28:23;;;;;;;29.73;15.60;;;;;;;;;;5032893;28;20699;-61
2023/01/23 02:30:51;;;;;;;22.85;13.80;;;;;;;;;;5034195;28;20216;-61
2023/01/23 02:33:41;;;;;;;24.17;14.43;;;;;;;;;;5017136;28;20211;-63
2023/01/23 02:36:10;;;;;;;22.35;13.70;;;;;;;;;;5034515;28;20538;-61
2023/01/23 02:38:45;;;;;;;25.02;14.75;;;;;;;;;;5033073;28;20186;-62
2023/01/23 02:41:16;;;;;;;26.27;14.23;;;;;;;;;;5048854;28;20188;-61
2023/01/23 02:43:45;;;;;;;22.88;13.05;;;;;;;;;;5032874;28;20266;-61
2023/01/23 02:46:14;;;;;;;21.35;13.20;;;;;;;;;;5032785;28;20208;-61
2023/01/23 02:48:44;;;;;;;19.50;12.80;;;;;;;;;;5033045;28;20225;-62
2023/01/23 02:51:12;;;;;;;23.83;13.70;;;;;;;;;;5035888;28;20203;-62
2023/01/23 02:53:41;;;;;;;20.90;13.80;;;;;;;;;;5052396;28;20200;-62
2023/01/23 02:56:09;;;;;;;27.30;15.15;;;;;;;;;;5051951;28;20533;-62
2023/01/23 03:01:26;;;;;;;22.02;13.05;;;;;;;;;;5052338;28;20207;-63
2023/01/23 03:03:55;;;;;;;21.17;12.57;;;;;;;;;;5042247;28;20608;-62
2023/01/23 03:06:24;;;;;;;20.70;13.20;;;;;;;;;;5032397;28;20201;-62
2023/01/23 03:08:54;;;;;;;23.80;13.27;;;;;;;;;;5033119;28;20581;-62
2023/01/23 03:11:26;;;;;;;20.80;13.50;;;;;;;;;;5045839;28;20195;-62
2023/01/23 03:13:55;;;;;;;24.25;13.88;;;;;;;;;;5033096;28;20239;-62
2023/01/23 03:16:24;;;;;;;22.60;12.68;;;;;;;;;;5031939;28;20241;-62
2023/01/23 03:18:52;;;;;;;18.77;12.32;;;;;;;;;;5043508;28;20550;-61
2023/01/23 03:21:20;;;;;;;20.85;13.13;;;;;;;;;;5051353;28;20208;-61
2023/01/23 03:23:48;;;;;;;22.63;13.52;;;;;;;;;;5052472;28;20231;-61
2023/01/23 03:26:16;;;;;;;20.17;12.90;;;;;;;;;;5049826;28;20204;-63
2023/01/23 03:31:32;;;;;;;18.00;10.85;;;;;;;;;;5031833;28;20193;-62
2023/01/23 03:34:00;;;;;;;23.40;12.80;;;;;;;;;;5032775;28;20761;-60
2023/01/23 03:36:31;;;;;;;21.52;12.68;;;;;;;;;;5031824;28;20248;-62
2023/01/23 03:41:47;;;;;;;19.40;12.52;;;;;;;;;;5037396;28;20196;-61
2023/01/23 03:44:17;;;;;;;20.00;13.13;;;;;;;;;;5033611;28;20201;-61
2023/01/23 03:46:48;;;;;;;21.88;11.48;;;;;;;;;;5031727;28;20213;-62
2023/01/23 03:49:16;;;;;;;20.95;12.05;;;;;;;;;;5033338;28;20205;-63
2023/01/23 03:51:47;;;;;;;20.92;12.20;;;;;;;;;;5041666;28;20197;-62
2023/01/23 03:54:17;;;;;;;19.70;11.60;;;;;;;;;;5030403;28;20258;-62
2023/01/23 03:56:46;;;;;;;17.65;10.80;;;;;;;;;;5049430;28;20208;-62
2023/01/23 03:59:31;;;;;;;15.93;11.73;;;;;;;;;;5051468;28;20654;-62
2023/01/23 04:02:03;;;;;;;20.83;12.10;;;;;;;;;;5050230;28;20207;-61
2023/01/23 04:04:32;;;;;;;19.88;11.55;;;;;;;;;;5050659;28;20201;-62
2023/01/23 04:07:00;;;;;;;20.55;12.38;;;;;;;;;;5051260;28;20207;-62
2023/01/23 04:09:30;;;;;;;18.08;10.65;;;;;;;;;;5050681;28;20681;-63
2023/01/23 04:11:59;;;;;;;16.77;11.18;;;;;;;;;;5050964;28;20201;-62
2023/01/23 04:14:34;;;;;;;22.20;12.18;;;;;;;;;;5033419;28;20205;-63
2023/01/23 04:17:03;;;;;;;18.95;11.75;;;;;;;;;;5051118;28;20629;-62
2023/01/23 04:19:31;;;;;;;17.25;11.82;;;;;;;;;;5052020;28;20200;-63
2023/01/23 04:21:59;;;;;;;15.88;10.13;;;;;;;;;;5052523;28;20209;-62
2023/01/23 04:24:27;;;;;;;20.83;11.63;;;;;;;;;;5050448;28;20208;-63
2023/01/23 04:26:55;;;;;;;19.00;11.20;;;;;;;;;;5050806;28;20675;-62
2023/01/23 04:29:25;;;;;;;22.38;11.95;;;;;;;;;;5050064;28;20239;-61
2023/01/23 04:31:53;;;;;;;17.95;10.70;;;;;;;;;;5051237;28;20569;-62
2023/01/23 04:34:23;;;;;;;15.43;9.85;;;;;;;;;;5051176;28;20208;-63
2023/01/23 04:36:53;;;;;;;20.92;12.30;;;;;;;;;;5051073;28;20554;-63
2023/01/23 04:39:21;;;;;;;17.02;10.25;;;;;;;;;;5050922;28;20567;-63
2023/01/23 04:41:50;;;;;;;18.77;12.23;;;;;;;;;;5052491;28;20222;-62
2023/01/23 04:44:30;;;;;;;17.63;10.90;;;;;;;;;;5058845;28;20201;-63
2023/01/23 04:47:21;;;;;;;20.40;11.38;;;;;;;;;;5068803;28;20206;-61
2023/01/23 04:49:51;;;;;;;20.13;12.00;;;;;;;;;;5070124;28;20238;-62
2023/01/23 04:52:20;;;;;;;17.10;10.27;;;;;;;;;;5070325;28;20214;-63
2023/01/23 04:54:55;;;;;;;18.77;11.82;;;;;;;;;;5071161;28;20192;-62
2023/01/23 04:57:23;;;;;;;13.07;9.23;;;;;;;;;;5038492;28;20301;-62
2023/01/23 04:59:57;;;;;;;17.17;10.60;;;;;;;;;;5042582;28;20196;-62
2023/01/23 05:02:25;;;;;;;18.40;10.75;;;;;;;;;;5048738;28;20204;-62
2023/01/23 05:04:55;;;;;;;16.85;10.45;;;;;;;;;;5065291;28;20539;-63
2023/01/23 05:07:23;;;;;;;19.77;11.43;;;;;;;;;;5051394;28;20576;-63
2023/01/23 05:10:07;;;;;;;17.52;10.80;;;;;;;;;;5036293;28;20213;-62
2023/01/23 05:12:36;;;;;;;18.08;11.15;;;;;;;;;;5029914;28;20213;-63
2023/01/23 05:15:06;;;;;;;19.65;11.38;;;;;;;;;;5029706;28;20225;-68
2023/01/23 05:17:38;;;;;;;15.13;10.65;;;;;;;;;;5030237;28;20209;-63
2023/01/23 05:20:08;;;;;;;21.75;11.88;;;;;;;;;;5031688;28;20275;-63
2023/01/23 05:22:50;;;;;;;19.63;10.13;;;;;;;;;;5046828;28;20686;-62
2023/01/23 05:25:20;;;;;;;19.25;10.20;;;;;;;;;;5049839;28;20189;-62
2023/01/23 05:27:48;;;;;;;18.17;10.20;;;;;;;;;;5049601;28;20689;-62
2023/01/23 05:30:18;;;;;;;15.35;10.27;;;;;;;;;;5049670;28;20220;-63
2023/01/23 05:32:47;;;;;;;17.20;10.63;;;;;;;;;;5049581;28;20675;-62
2023/01/23 05:35:22;;;;;;;18.15;11.13;;;;;;;;;;5046377;28;20216;-62
2023/01/23 05:37:50;;;;;;;16.55;10.40;;;;;;;;;;5031272;28;20216;-62
2023/01/23 05:40:22;;;;;;;18.15;10.93;;;;;;;;;;5047253;28;20193;-62
2023/01/23 05:43:12;;;;;;;15.85;11.18;;;;;;;;;;5020776;28;20212;-63
2023/01/23 05:46:00;;;;;;;16.27;11.15;;;;;;;;;;5032032;28;20194;-63
2023/01/23 05:48:44;;;;;;;19.15;11.50;;;;;;;;;;5030571;28;20222;-61
2023/01/23 05:51:14;;;;;;;19.38;12.68;;;;;;;;;;5014380;28;20205;-62
2023/01/23 05:53:43;;;;;;;19.23;11.85;;;;;;;;;;5014002;28;20209;-62
2023/01/23 05:56:11;;;;;;;18.85;11.57;;;;;;;;;;5022039;28;20207;-61
2023/01/23 05:58:53;;;;;;;22.63;10.63;;;;;;;;;;5054432;28;20212;-62
2023/01/23 06:01:32;;;;;;;18.40;10.77;;;;;;;;;;5052685;28;20752;-62
2023/01/23 06:04:01;;;;;;;18.42;10.38;;;;;;;;;;5052829;28;20577;-62
2023/01/23 06:06:38;;;;;;;20.77;12.07;;;;;;;;;;5053809;28;20197;-62
2023/01/23 06:09:08;;;;;;;21.77;10.25;;;;;;;;;;5052794;28;21711;-64
2023/01/23 06:11:36;;;;;;;15.93;8.88;;;;;;;;;;5030495;28;20219;-62
2023/01/23 06:14:05;;;;;;;14.57;9.63;;;;;;;;;;5046050;28;20219;-62
2023/01/23 06:16:34;;;;;;;16.70;11.10;;;;;;;;;;5047852;28;20237;-62
2023/01/23 06:19:03;;;;;;;16.80;10.57;;;;;;;;;;5053520;28;20199;-63
2023/01/23 06:21:33;;;;;;;13.70;9.10;;;;;;;;;;5044757;28;20193;-62
2023/01/23 06:24:04;;;;;;;17.55;10.50;;;;;;;;;;5033742;28;20606;-63
2023/01/23 06:26:32;;;;;;;19.92;14.30;;;;;;;;;;5033461;28;20206;-63
2023/01/23 06:29:01;;;;;;;15.00;9.65;;;;;;;;;;5033272;28;20695;-62
2023/01/23 06:31:31;;;;;;;15.68;10.13;;;;;;;;;;5016837;28;20247;-62
2023/01/23 06:34:01;;;;;;;18.80;10.35;;;;;;;;;;5032449;28;20194;-62
2023/01/23 06:36:33;;;;;;;14.85;9.63;;;;;;;;;;5041241;28;20558;-62
2023/01/23 06:39:01;;;;;;;16.45;9.50;;;;;;;;;;5046868;28;20193;-62
2023/01/23 06:41:38;;;;;;;17.38;9.93;;;;;;;;;;5033325;28;20197;-64
2023/01/23 06:44:08;;;;;;;14.85;10.45;;;;;;;;;;5044041;28;21124;-63
2023/01/23 06:46:36;;;;;;;17.95;10.65;;;;;;;;;;5047507;28;20209;-63
2023/01/23 06:49:05;;;;;;;16.23;10.88;;;;;;;;;;5051529;28;20236;-65
2023/01/23 06:51:35;;;;;;;16.90;10.15;;;;;;;;;;5053022;28;20636;-64
2023/01/23 06:54:04;;;;;;;20.02;11.63;;;;;;;;;;5047799;28;20648;-64
2023/01/23 06:56:32;;;;;;;16.08;9.95;;;;;;;;;;5050365;28;20204;-63
2023/01/23 06:59:05;;;;;;;15.60;10.48;;;;;;;;;;5052757;28;20185;-65
2023/01/23 07:01:34;;;;;;;18.77;11.55;;;;;;;;;;5051910;28;20211;-60
2023/01/23 07:04:05;;;;;;;13.52;9.15;;;;;;;;;;5053238;28;20201;-61
2023/01/23 07:06:33;;;;;;;16.67;10.50;;;;;;;;;;5052561;28;20552;-60
2023/01/23 07:09:01;;;;;;;16.33;9.80;;;;;;;;;;5052446;28;20204;-62
2023/01/23 07:11:29;;;;;;;16.33;10.30;;;;;;;;;;5052675;28;20200;-63
2023/01/23 07:13:57;;;;;;;17.08;10.93;;;;;;;;;;5054066;28;20219;-62
2023/01/23 07:16:29;;;;;;;17.52;10.35;;;;;;;;;;5052285;28;20240;-63
2023/01/23 07:18:58;;;;;;;13.10;9.50;;;;;;;;;;5052729;28;20568;-63
2023/01/23 07:21:27;;;;;;;16.08;10.00;;;;;;;;;;5052359;28;20682;-62
2023/01/23 07:23:54;;;;;;;18.42;10.48;;;;;;;;;;5053603;28;20220;-63
2023/01/23 07:26:22;;;;;;;15.98;10.30;;;;;;;;;;5053158;28;20664;-63
2023/01/23 07:28:50;;;;;;;19.33;10.40;;;;;;;;;;5052668;28;20207;-63
2023/01/23 07:31:18;;;;;;;19.05;11.75;;;;;;;;;;5051565;28;20583;-64
2023/01/23 07:33:48;;;;;;;17.48;10.40;;;;;;;;;;5053216;28;20207;-63
2023/01/23 07:36:17;;;;;;;17.23;9.98;;;;;;;;;;5053377;28;20212;-62
2023/01/23 07:38:45;;;;;;;20.40;11.75;;;;;;;;;;5053821;28;20231;-63
2023/01/23 07:41:13;;;;;;;19.95;13.13;;;;;;;;;;5053207;28;20201;-63
2023/01/23 07:43:41;;;;;;;22.13;12.35;;;;;;;;;;5053501;28;20200;-63
2023/01/23 07:46:09;;;;;;;17.17;11.55;;;;;;;;;;5053313;28;20208;-62
2023/01/23 07:48:37;;;;;;;22.67;13.48;;;;;;;;;;5053239;28;20208;-63
2023/01/23 07:51:07;;;;;;;22.50;12.18;;;;;;;;;;5053033;28;20330;-63
2023/01/23 07:53:35;;;;;;;25.98;12.05;;;;;;;;;;5052963;28;20208;-63
2023/01/23 07:56:06;;;;;;;19.63;11.20;;;;;;;;;;5052800;28;20192;-62
2023/01/23 07:58:34;;;;;;;17.67;11.38;;;;;;;;;;5052959;28;20200;-63
2023/01/23 08:01:07;;;;;;;19.08;12.55;;;;;;;;;;5052656;28;20193;-63
2023/01/23 08:03:37;;;;;;;18.17;10.70;;;;;;;;;;5046861;28;20356;-64
2023/01/23 08:06:07;;;;;;;18.63;10.80;;;;;;;;;;5052056;28;20204;-61
2023/01/23 08:08:36;;;;;;;19.75;11.85;;;;;;;;;;5051300;28;20210;-61
2023/01/23 08:11:05;;;;;;;24.23;13.77;;;;;;;;;;5052502;28;20691;-62
2023/01/23 08:13:33;;;;;;;27.02;14.75;;;;;;;;;;5052665;28;20208;-64
2023/01/23 08:16:01;;;;;;;27.38;14.07;;;;;;;;;;5051040;28;20228;-64
2023/01/23 08:18:30;;;;;;;22.77;14.40;;;;;;;;;;5051570;28;20201;-64
2023/01/23 08:20:59;;;;;;;19.63;11.60;;;;;;;;;;5050660;28;20211;-63
2023/01/23 08:23:30;;;;;;;17.23;11.70;;;;;;;;;;5051418;28;20228;-64
2023/01/23 08:25:59;;;;;;;19.15;11.55;;;;;;;;;;5052075;28;20192;-64
2023/01/23 08:28:27;;;;;;;17.95;11.75;;;;;;;;;;5051513;28;20204;-64
2023/01/23 08:30:55;;;;;;;17.90;11.13;;;;;;;;;;5052376;28;20217;-64
2023/01/23 08:33:23;;;;;;;20.38;11.35;;;;;;;;;;5051573;28;20200;-62
2023/01/23 08:35:53;;;;;;;18.92;11.50;;;;;;;;;;5051660;28;20204;-64
2023/01/23 08:38:21;;;;;;;17.27;11.50;;;;;;;;;;5051627;28;20215;-64
2023/01/23 08:40:52;;;;;;;17.73;11.32;;;;;;;;;;5052057;28;20547;-64
2023/01/23 08:43:20;;;;;;;20.00;11.68;;;;;;;;;;5051742;28;20193;-62
2023/01/23 08:45:49;;;;;;;20.83;13.65;;;;;;;;;;5049046;28;20212;-63
2023/01/23 08:48:21;;;;;;;16.98;11.07;;;;;;;;;;5051755;28;20209;-64
2023/01/23 08:50:49;;;;;;;22.17;11.15;;;;;;;;;;5051155;28;20220;-63
2023/01/23 08:53:17;;;;;;;22.50;11.25;;;;;;;;;;5051518;28;20670;-64
2023/01/23 08:55:48;;;;;;;18.52;11.90;;;;;;;;;;5051713;28;20192;-64
2023/01/23 08:58:17;;;;;;;23.35;12.15;;;;;;;;;;5051711;28;20212;-63
2023/01/23 09:00:45;;;;;;;15.73;10.93;;;;;;;;;;5050471;28;20197;-62
2023/01/23 09:03:14;;;;;;;24.33;12.23;;;;;;;;;;5050199;28;20714;-63
2023/01/23 09:05:41;;;;;;;18.50;11.57;;;;;;;;;;5050463;28;20208;-62
2023/01/23 09:08:09;;;;;;;14.65;10.02;;;;;;;;;;5051479;28;20204;-63
2023/01/23 09:10:37;;;;;;;18.30;10.55;;;;;;;;;;5050467;28;20228;-63
2023/01/23 09:13:05;;;;;;;15.43;10.93;;;;;;;;;;5051483;28;20270;-62
2023/01/23 09:15:35;;;;;;;17.63;11.05;;;;;;;;;;5050472;28;20573;-64
2023/01/23 09:18:03;;;;;;;19.42;11.50;;;;;;;;;;5050949;28;20212;-64
2023/01/23 09:20:31;;;;;;;19.55;11.32;;;;;;;;;;5050521;28;20201;-64
2023/01/23 09:22:59;;;;;;;18.17;10.80;;;;;;;;;;5051202;28;20735;-64
2023/01/23 09:25:30;;;;;;;18.15;11.30;;;;;;;;;;5050406;28;20207;-64
2023/01/23 09:27:58;;;;;;;17.73;11.65;;;;;;;;;;5051416;28;20640;-63
2023/01/23 09:30:26;;;;;;;17.80;10.90;;;;;;;;;;5051913;28;20227;-65
2023/01/23 09:32:55;;;;;;;18.25;11.63;;;;;;;;;;5054466;28;20204;-64
2023/01/23 09:35:23;;;;;;;20.13;10.80;;;;;;;;;;5055525;28;20588;-64
2023/01/23 09:38:00;;;;;;;16.95;11.35;;;;;;;;;;5054042;28;20212;-64
2023/01/23 09:40:30;;;;;;;17.55;11.18;;;;;;;;;;5055150;28;20184;-65
2023/01/23 09:43:00;;;;;;;16.73;10.70;;;;;;;;;;5050218;28;20227;-64
2023/01/23 09:45:28;;;;;;;16.10;10.80;;;;;;;;;;5055579;28;20210;-64
2023/01/23 09:48:05;;;;;;;16.73;10.60;;;;;;;;;;5053776;28;20250;-64
2023/01/23 09:50:35;;;;;;;15.82;10.68;;;;;;;;;;5055190;28;20205;-64
2023/01/23 09:53:08;;;;;;;15.68;9.70;;;;;;;;;;5054322;28;20209;-62
2023/01/23 09:55:40;;;;;;;13.40;9.50;;;;;;;;;;5054981;28;20208;-63
2023/01/23 09:58:15;;;;;;;15.52;10.55;;;;;;;;;;5050506;28;20711;-63
2023/01/23 10:00:44;;;;;;;17.10;10.55;;;;;;;;;;5034782;28;20660;-63
2023/01/23 10:03:15;;;;;;;22.50;12.75;;;;;;;;;;5046863;28;20212;-62
2023/01/23 10:05:47;;;;;;;13.55;10.23;;;;;;;;;;5047639;28;20209;-64
2023/01/23 10:08:19;;;;;;;16.92;10.18;;;;;;;;;;5055113;28;20192;-63
2023/01/23 10:10:55;;;;;;;16.90;11.02;;;;;;;;;;5055115;28;20694;-63
2023/01/23 10:13:30;;;;;;;15.85;10.60;;;;;;;;;;5054382;28;20192;-63
2023/01/23 10:16:20;;;;;;;18.17;11.77;;;;;;;;;;5053731;28;20240;-64
2023/01/23 10:18:53;;;;;;;17.65;11.07;;;;;;;;;;5050180;28;20253;-63
2023/01/23 10:21:24;;;;;;;17.30;9.93;;;;;;;;;;5054552;28;20193;-64
2023/01/23 10:23:58;;;;;;;17.20;10.48;;;;;;;;;;5054123;28;20707;-64
2023/01/23 10:26:28;;;;;;;16.77;11.05;;;;;;;;;;5054612;28;20195;-63
2023/01/23 10:28:59;;;;;;;12.90;10.15;;;;;;;;;;5049744;28;20200;-65
2023/01/23 10:31:31;;;;;;;17.95;11.05;;;;;;;;;;5054480;28;20211;-65
2023/01/23 10:34:04;;;;;;;17.45;11.73;;;;;;;;;;5054805;28;20196;-63
2023/01/23 10:36:35;;;;;;;15.30;9.77;;;;;;;;;;5054787;28;20193;-64
2023/01/23 10:39:05;;;;;;;16.15;10.20;;;;;;;;;;5054499;28;20547;-65
2023/01/23 10:41:33;;;;;;;13.23;9.30;;;;;;;;;;5053527;28;20211;-65
2023/01/23 10:44:02;;;;;;;16.60;10.60;;;;;;;;;;5053904;28;20209;-64
2023/01/23 10:46:32;;;;;;;13.55;9.77;;;;;;;;;;5054050;28;20262;-65
2023/01/23 10:49:01;;;;;;;16.92;9.32;;;;;;;;;;5053968;28;20651;-64
2023/01/23 10:51:46;;;;;;;16.15;10.20;;;;;;;;;;5054103;28;20228;-63
2023/01/23 10:54:20;;;;;;;15.93;10.60;;;;;;;;;;5052823;28;20204;-63
2023/01/23 10:56:58;;;;;;;16.65;12.07;;;;;;;;;;5054298;28;20266;-64
2023/01/23 10:59:29;;;;;;;14.27;10.35;;;;;;;;;;5054311;28;20208;-64
2023/01/23 11:02:15;;;;;;;17.65;10.23;;;;;;;;;;5052237;28;20195;-65
2023/01/23 11:04:46;;;;;;;14.10;9.93;;;;;;;;;;5044646;28;20204;-65
2023/01/23 11:07:17;;;;;;;15.70;9.77;;;;;;;;;;5053993;28;20211;-65
2023/01/23 11:09:47;;;;;;;18.83;9.75;;;;;;;;;;5054154;28;20545;-65
2023/01/23 11:12:17;;;;;;;16.67;9.43;;;;;;;;;;5052314;28;20227;-64
2023/01/23 11:14:45;;;;;;;16.48;9.93;;;;;;;;;;5053630;28;20241;-65
2023/01/23 11:17:18;;;;;;;13.57;9.15;;;;;;;;;;5053536;28;20205;-64
2023/01/23 11:19:46;;;;;;;14.05;8.85;;;;;;;;;;5053485;28;20204;-64
2023/01/23 11:22:27;;;;;;;16.60;9.68;;;;;;;;;;5051885;28;20223;-63
2023/01/23 11:24:56;;;;;;;14.00;8.95;;;;;;;;;;5053774;28;20193;-63
2023/01/23 11:27:27;;;;;;;11.77;8.15;;;;;;;;;;5053495;28;20638;-63
2023/01/23 11:30:14;;;;;;;11.68;8.00;;;;;;;;;;5053491;28;20193;-63
2023/01/23 11:32:43;;;;;;;11.30;7.90;;;;;;;;;;5048132;28;20713;-62
2023/01/23 11:35:13;;;;;;;11.80;7.97;;;;;;;;;;5052910;28;20200;-64
2023/01/23 11:37:43;;;;;;;9.70;7.57;;;;;;;;;;5033697;28;20205;-64
2023/01/23 11:40:14;;;;;;;13.38;8.43;;;;;;;;;;5041491;28;20201;-65
2023/01/23 11:42:43;;;;;;;13.77;8.90;;;;;;;;;;5052048;28;20214;-65
2023/01/23 11:45:18;;;;;;;9.90;7.95;;;;;;;;;;5036399;28;20222;-64
2023/01/23 11:47:52;;;;;;;11.98;8.45;;;;;;;;;;5047003;28;20200;-63
2023/01/23 11:50:29;;;;;;;11.95;8.18;;;;;;;;;;5039760;28;20632;-63
2023/01/23 11:53:02;;;;;;;11.27;6.97;;;;;;;;;;5049235;28;20218;-64
2023/01/23 11:55:38;;;;;;;10.98;8.07;;;;;;;;;;5044944;28;20196;-63
2023/01/23 11:58:13;;;;;;;13.35;8.25;;;;;;;;;;5032965;28;20562;-63
2023/01/23 12:00:44;;;;;;;16.88;8.70;;;;;;;;;;5036411;28;20193;-64
2023/01/23 12:03:24;;;;;;;11.93;8.65;;;;;;;;;;5049727;28;20640;-63
2023/01/23 12:06:09;;;;;;;10.90;7.40;;;;;;;;;;5047407;28;20201;-63
2023/01/23 12:08:42;;;;;;;12.20;8.38;;;;;;;;;;5051757;28;20193;-64
2023/01/23 12:11:15;;;;;;;12.27;8.32;;;;;;;;;;5046524;28;20209;-63
2023/01/23 12:14:04;;;;;;;11.70;7.45;;;;;;;;;;5050293;28;20200;-64
2023/01/23 12:16:39;;;;;;;11.68;7.43;;;;;;;;;;5048162;28;20265;-63
2023/01/23 12:19:12;;;;;;;14.05;9.98;;;;;;;;;;5045698;28;20200;-63
2023/01/23 12:21:44;;;;;;;12.75;8.13;;;;;;;;;;5047471;28;20204;-63
2023/01/23 12:24:18;;;;;;;13.90;9.13;;;;;;;;;;5047592;28;20213;-64
2023/01/23 12:26:53;;;;;;;18.00;9.38;;;;;;;;;;5043644;28;20196;-64
2023/01/23 12:29:42;;;;;;;12.48;9.30;;;;;;;;;;5040507;28;20200;-64
2023/01/23 12:32:15;;;;;;;13.15;8.68;;;;;;;;;;5016565;28;20213;-64
2023/01/23 12:34:51;;;;;;;12.18;8.88;;;;;;;;;;5039432;28;20655;-64
2023/01/23 12:37:26;;;;;;;18.85;8.80;;;;;;;;;;5046988;28;20567;-64
2023/01/23 12:40:02;;;;;;;12.55;9.23;;;;;;;;;;5039647;28;20196;-64
2023/01/23 12:42:32;;;;;;;11.38;7.60;;;;;;;;;;5039583;28;20189;-65
2023/01/23 12:45:04;;;;;;;12.95;9.00;;;;;;;;;;5050982;28;20200;-64
2023/01/23 12:47:34;;;;;;;14.25;8.98;;;;;;;;;;5041335;28;20197;-64
2023/01/23 12:50:03;;;;;;;17.33;9.80;;;;;;;;;;5047053;28;20197;-64
2023/01/23 12:52:35;;;;;;;15.52;9.63;;;;;;;;;;5042080;28;20220;-66
2023/01/23 12:55:06;;;;;;;15.32;9.55;;;;;;;;;;5038609;28;20673;-64
2023/01/23 12:57:43;;;;;;;80.43;15.82;;;;;;;;;;5043855;28;20748;-64
2023/01/23 13:00:19;;;;;;;13.57;9.45;;;;;;;;;;5041714;28;20192;-64
2023/01/23 13:02:49;;;;;;;17.63;10.60;;;;;;;;;;5039284;28;20196;-64
2023/01/23 13:05:20;;;;;;;15.30;8.80;;;;;;;;;;5041863;28;20185;-65
2023/01/23 13:07:54;;;;;;;18.85;9.15;;;;;;;;;;5047348;28;20207;-64
2023/01/23 13:13:23;;;;;;;18.15;10.73;;;;;;;;;;5045962;28;20216;-64
2023/01/23 13:16:02;;;;;;;12.20;9.02;;;;;;;;;;5042916;28;20224;-64
2023/01/23 13:21:59;;;;;;;13.80;9.20;;;;;;;;;;5041737;28;20197;-61
2023/01/23 13:27:22;;;;;;;14.00;9.63;;;;;;;;;;5043076;28;20564;-64
2023/01/23 13:29:51;;;;;;;21.88;9.90;;;;;;;;;;5045194;28;20208;-64
2023/01/23 13:32:21;;;;;;;11.77;8.10;;;;;;;;;;5051076;28;20228;-64
2023/01/23 13:34:50;;;;;;;14.13;9.63;;;;;;;;;;5044482;28;20239;-64
2023/01/23 13:37:42;;;;;;;14.40;9.00;;;;;;;;;;5049320;28;20197;-63
2023/01/23 13:40:14;;;;;;;12.65;9.13;;;;;;;;;;5042010;28;20609;-64
2023/01/23 13:42:42;;;;;;;14.07;8.88;;;;;;;;;;5044534;28;20196;-64
2023/01/23 13:45:26;;;;;;;13.27;8.80;;;;;;;;;;5046084;28;20196;-64
2023/01/23 13:51:06;;;;;;;13.05;8.13;;;;;;;;;;5036226;28;20198;-64
2023/01/23 13:56:43;;;;;;;11.32;8.95;;;;;;;;;;5044778;28;20204;-65
2023/01/23 13:59:18;;;;;;;13.93;9.30;;;;;;;;;;5045895;28;20208;-63
2023/01/23 14:10:26;;;;;;;12.98;9.23;;;;;;;;;;5056513;28;20199;-63
2023/01/23 14:13:05;;;;;;;16.08;9.68;;;;;;;;;;5052310;28;20208;-63
2023/01/23 14:18:25;;;;;;;15.73;9.73;;;;;;;;;;5054118;28;20188;-63
2023/01/23 14:20:54;;;;;;;18.42;10.10;;;;;;;;;;5039940;28;20275;-63
2023/01/23 14:23:27;;;;;;;17.25;9.68;;;;;;;;;;5054412;28;20224;-64
2023/01/23 14:25:55;;;;;;;13.93;10.18;;;;;;;;;;5053350;28;20204;-63
2023/01/23 14:28:23;;;;;;;14.88;9.77;;;;;;;;;;5050603;28;20232;-63
2023/01/23 14:30:59;;;;;;;13.48;9.20;;;;;;;;;;5050195;28;20211;-63
2023/01/23 14:33:29;;;;;;;12.23;8.18;;;;;;;;;;5055298;28;20599;-62
2023/01/23 14:35:57;;;;;;;15.10;9.98;;;;;;;;;;5054209;28;20200;-63
2023/01/23 14:38:28;;;;;;;13.65;9.60;;;;;;;;;;5052918;28;20208;-62
2023/01/23 14:40:56;;;;;;;10.80;8.60;;;;;;;;;;5054889;28;20193;-63
2023/01/23 14:43:26;;;;;;;13.98;9.20;;;;;;;;;;5054143;28;20211;-64
2023/01/23 14:46:00;;;;;;;12.30;8.65;;;;;;;;;;5053472;28;20306;-64
2023/01/23 14:48:32;;;;;;;14.82;9.95;;;;;;;;;;5047334;28;20552;-65
2023/01/23 14:51:05;;;;;;;14.88;9.73;;;;;;;;;;5034633;28;20190;-64
2023/01/23 14:53:33;;;;;;;12.70;8.77;;;;;;;;;;5039312;28;20212;-64
2023/01/23 14:56:02;;;;;;;16.75;9.10;;;;;;;;;;5054425;28;20209;-65
2023/01/23 14:58:31;;;;;;;12.80;9.18;;;;;;;;;;5054229;28;20231;-64
2023/01/23 15:01:02;;;;;;;12.57;8.20;;;;;;;;;;5052296;28;20209;-64
2023/01/23 15:03:39;;;;;;;13.90;9.23;;;;;;;;;;5051136;28;20563;-64
2023/01/23 15:06:09;;;;;;;13.80;9.35;;;;;;;;;;5052820;28;20234;-64
2023/01/23 15:08:37;;;;;;;11.93;8.77;;;;;;;;;;5053942;28;20193;-64
2023/01/23 15:11:10;;;;;;;14.82;9.20;;;;;;;;;;5052911;28;20208;-64
2023/01/23 15:13:43;;;;;;;15.13;9.65;;;;;;;;;;5053112;28;20208;-66
2023/01/23 15:16:14;;;;;;;12.35;8.52;;;;;;;;;;5053031;28;20233;-64
2023/01/23 15:18:52;;;;;;;11.93;9.07;;;;;;;;;;5054176;28;20196;-63